Time;durP1;ratioP1;P1;durP2;ratioP2;P2;SDS_P1;SDS_P2;PMS_P1;PMS_P2;Temp;Humidity;BMP_temperature;BMP_pressure;BME280_temperature;BME280_humidity;BME280_pressure;Samples;Min_cycle;Max_cycle;Signal;HPM_P1;HPM_P2
2022/01/25 00:09:18;;;;;;;53.83;35.77;;;8.50;61.20;;;11.60;46.62;103380.97;5054056;28;20190;-65
2022/01/25 00:25:45;;;;;;;57.80;38.33;;;8.40;61.70;;;11.51;46.96;103360.56;5053006;28;20212;-66
2022/01/25 00:31:03;;;;;;;53.63;34.97;;;8.40;61.60;;;11.49;46.84;103373.03;5053570;28;20612;-64
2022/01/25 00:33:33;;;;;;;55.50;37.17;;;8.40;61.70;;;11.51;47.39;103360.56;5053057;28;20213;-64
2022/01/25 00:36:05;;;;;;;53.50;36.83;;;8.40;61.80;;;11.52;47.02;103359.63;5052503;28;20218;-65
2022/01/25 00:38:32;;;;;;;47.13;32.47;;;8.30;61.80;;;11.54;47.16;103365.63;5053724;28;20301;-64
2022/01/25 00:41:00;;;;;;;55.80;38.17;;;8.30;61.90;;;11.51;46.72;103360.56;5053753;28;20293;-64
2022/01/25 00:43:27;;;;;;;63.33;40.33;;;8.40;61.90;;;11.47;47.46;103364.41;5053403;28;20240;-63
2022/01/25 00:45:59;;;;;;;56.17;38.47;;;8.40;61.70;;;11.43;47.25;103368.25;5053412;28;20512;-63
2022/01/25 00:51:20;;;;;;;57.57;38.43;;;8.30;61.50;;;11.33;47.63;103349.63;5053124;28;20247;-64
2022/01/25 00:54:08;;;;;;;56.47;39.67;;;8.30;61.60;;;11.29;47.59;103355.25;5051817;28;20216;-65
2022/01/25 00:56:43;;;;;;;54.77;35.67;;;8.30;61.80;;;11.22;47.55;103344.28;5052363;28;20614;-65
2022/01/25 00:59:14;;;;;;;50.13;35.87;;;8.20;61.90;;;11.19;47.44;103343.69;5056075;28;20225;-65
2022/01/25 01:01:43;;;;;;;54.53;37.07;;;8.20;62.20;;;11.13;47.40;103339.72;5057204;28;20292;-65
2022/01/25 01:04:11;;;;;;;52.20;35.23;;;8.20;62.30;;;11.14;47.66;103335.28;5056875;28;20213;-64
2022/01/25 01:06:42;;;;;;;50.80;34.67;;;8.10;62.50;;;11.17;47.99;103345.63;5056019;28;20209;-64
2022/01/25 01:09:11;;;;;;;48.30;33.80;;;8.10;62.60;;;11.16;48.02;103344.78;5057310;28;20539;-65
2022/01/25 01:11:48;;;;;;;52.27;36.53;;;8.10;62.70;;;11.12;47.87;103342.47;5057054;28;20278;-63
2022/01/25 01:43:40;;;;;;;47.87;35.23;;;8.20;63.20;;;11.37;48.01;103332.63;5055044;28;20229;-64
2022/01/25 01:51:17;;;;;;;54.90;38.77;;;8.20;62.80;;;11.27;47.92;103317.59;5056427;28;20217;-64
2022/01/25 01:53:47;;;;;;;54.83;36.87;;;8.20;62.90;;;11.23;48.30;103324.06;5056350;28;20692;-63
2022/01/25 01:56:14;;;;;;;53.13;34.80;;;8.20;62.90;;;11.23;48.31;103321.41;5056484;28;20698;-64
2022/01/25 01:58:42;;;;;;;55.30;37.43;;;8.20;63.20;;;11.21;48.03;103320.69;5055158;28;20551;-64
2022/01/25 02:01:15;;;;;;;50.30;33.73;;;8.10;63.10;;;11.16;47.93;103323.69;5056317;28;20201;-64
2022/01/25 02:03:43;;;;;;;54.13;37.63;;;8.10;63.30;;;11.14;48.23;103316.84;5055861;28;20300;-63
2022/01/25 02:06:11;;;;;;;51.10;35.40;;;8.10;63.30;;;11.08;48.22;103318.13;5056444;28;20189;-64
2022/01/25 02:08:38;;;;;;;52.80;34.87;;;8.00;63.40;;;11.07;48.44;103326.16;5055772;28;20196;-64
2022/01/25 02:11:07;;;;;;;50.67;35.23;;;8.00;63.50;;;11.07;48.69;103331.44;5054787;28;20190;-64
2022/01/25 02:13:37;;;;;;;49.37;34.50;;;8.00;63.60;;;11.07;48.70;103323.53;5055766;28;20210;-64
2022/01/25 02:16:07;;;;;;;52.00;34.70;;;8.00;63.70;;;11.07;48.72;103319.09;5055027;28;20255;-64
2022/01/25 02:24:09;;;;;;;51.57;34.13;;;8.00;63.90;;;11.14;48.41;103319.47;5055525;28;20228;-63
2022/01/25 02:26:36;;;;;;;52.70;36.73;;;8.00;63.90;;;11.16;48.72;103307.88;5055199;28;20230;-63
2022/01/25 02:29:04;;;;;;;55.73;37.80;;;8.10;64.10;;;11.20;48.65;103308.47;5055569;28;20531;-63
2022/01/25 02:31:31;;;;;;;56.47;39.20;;;8.10;64.00;;;11.22;48.16;103306.56;5055703;28;20273;-64
2022/01/25 02:33:59;;;;;;;51.37;35.43;;;8.00;64.00;;;11.26;48.34;103313.28;5055093;28;20659;-64
2022/01/25 02:36:28;;;;;;;53.10;36.70;;;8.00;64.10;;;11.28;48.53;103306.09;5054080;28;20186;-65
2022/01/25 02:38:56;;;;;;;51.43;35.23;;;8.10;64.10;;;11.25;48.80;103303.69;5055118;28;20218;-63
2022/01/25 02:41:24;;;;;;;62.50;39.67;;;8.10;64.00;;;11.23;48.12;103287.16;5055151;28;20190;-64
2022/01/25 02:43:53;;;;;;;50.53;34.27;;;8.10;63.70;;;11.21;48.28;103287.28;5054889;28;20214;-65
2022/01/25 02:48:29;;;;;;;55.37;38.23;;;8.10;63.70;;;11.17;48.52;103292.91;5055551;28;20281;-63
2022/01/25 02:49:09;;;;;;;58.97;39.63;;;8.10;63.70;;;11.17;48.67;103306.06;5054566;28;20197;-64
2022/01/25 02:51:42;;;;;;;51.33;34.77;;;8.10;63.80;;;11.17;48.47;103290.25;5056487;28;20610;-62
2022/01/25 02:54:11;;;;;;;62.57;40.03;;;8.10;63.80;;;11.16;48.49;103291.19;5055656;28;20214;-63
2022/01/25 02:56:42;;;;;;;55.63;37.03;;;8.10;63.60;;;11.12;48.86;103290.59;5055999;28;20190;-65
2022/01/25 02:59:12;;;;;;;54.17;36.57;;;8.10;63.60;;;11.08;48.71;103293.59;5054931;28;20292;-65
2022/01/25 03:01:39;;;;;;;64.23;40.17;;;8.10;63.60;;;11.08;48.60;103290.97;5054905;28;20198;-65
2022/01/25 03:04:09;;;;;;;58.77;38.40;;;8.00;63.70;;;11.09;48.44;103289.97;5054471;28;20668;-65
2022/01/25 03:06:39;;;;;;;56.90;37.03;;;8.00;63.80;;;11.07;48.85;103286.63;5053974;28;20198;-64
2022/01/25 03:09:06;;;;;;;58.33;37.30;;;8.00;63.90;;;11.06;48.37;103279.66;5054099;28;20196;-65
2022/01/25 03:11:34;;;;;;;55.87;37.40;;;8.00;63.90;;;11.04;48.50;103286.84;5054286;28;20202;-65
2022/01/25 03:14:06;;;;;;;53.83;35.93;;;8.00;63.90;;;11.01;49.32;103281.78;5054931;28;20617;-64
2022/01/25 03:16:41;;;;;;;52.63;35.93;;;8.00;64.10;;;11.03;49.14;103280.72;5055071;28;20210;-65
2022/01/25 03:22:05;;;;;;;54.37;35.60;;;8.00;64.40;;;11.08;49.19;103283.06;5054741;28;20244;-65
2022/01/25 03:24:33;;;;;;;56.67;38.00;;;8.00;64.10;;;11.14;48.67;103285.22;5036522;28;20264;-65
2022/01/25 03:27:01;;;;;;;48.40;34.03;;;8.00;64.30;;;11.20;48.69;103282.09;5054410;28;20209;-65
2022/01/25 03:29:28;;;;;;;57.50;37.40;;;8.10;64.50;;;11.26;48.68;103285.13;5054631;28;20704;-64
2022/01/25 03:31:55;;;;;;;52.63;34.97;;;8.10;64.30;;;11.30;48.92;103283.09;5053565;28;20646;-65
2022/01/25 03:34:23;;;;;;;53.13;35.80;;;8.10;64.30;;;11.34;48.48;103287.16;5054166;28;20272;-65
2022/01/25 03:36:50;;;;;;;53.43;35.30;;;8.10;64.20;;;11.36;48.86;103272.09;5054543;28;20273;-65
2022/01/25 03:39:18;;;;;;;54.93;36.67;;;8.10;64.20;;;11.38;48.25;103278.94;5054285;28;20216;-65
2022/01/25 03:41:46;;;;;;;59.30;38.00;;;8.20;64.20;;;11.38;47.90;103291.28;5054535;28;20577;-64
2022/01/25 03:44:16;;;;;;;56.03;38.20;;;8.10;64.00;;;11.34;48.49;103282.75;5052658;28;20213;-63
2022/01/25 03:52:07;;;;;;;54.27;35.53;;;8.10;64.20;;;11.32;48.76;103281.16;5053933;28;20271;-65
2022/01/25 03:54:37;;;;;;;56.73;37.67;;;8.10;64.20;;;11.33;48.60;103269.69;5053607;28;20214;-64
2022/01/25 03:57:05;;;;;;;56.27;36.70;;;8.10;64.10;;;11.32;48.66;103275.91;5052793;28;20252;-65
2022/01/25 03:59:32;;;;;;;55.27;36.63;;;8.10;64.10;;;11.32;48.36;103286.44;5052944;28;20213;-65
2022/01/25 04:02:00;;;;;;;51.90;36.23;;;8.10;64.30;;;11.33;48.64;103280.22;5053296;28;20212;-65
2022/01/25 04:04:29;;;;;;;53.13;35.17;;;8.10;64.20;;;11.31;48.71;103276.88;5053795;28;20206;-65
2022/01/25 04:06:57;;;;;;;53.67;36.70;;;8.10;64.20;;;11.32;48.83;103281.16;5053561;28;20224;-62
2022/01/25 04:09:28;;;;;;;48.27;32.87;;;8.10;64.20;;;11.34;48.39;103279.25;5053553;28;20298;-65
2022/01/25 04:11:56;;;;;;;52.07;34.67;;;8.10;64.30;;;11.36;48.49;103278.19;5055876;28;20189;-63
2022/01/25 04:14:24;;;;;;;52.03;34.00;;;8.20;64.40;;;11.39;48.82;103277.13;5053551;28;20617;-63
2022/01/25 04:16:58;;;;;;;53.73;36.47;;;8.20;64.50;;;11.42;48.41;103280.38;5052570;28;20585;-64
2022/01/25 04:19:35;;;;;;;51.70;34.27;;;8.20;64.40;;;11.44;48.63;103285.50;5053760;28;20213;-64
2022/01/25 04:27:13;;;;;;;52.47;34.20;;;8.20;65.00;;;11.39;48.38;103277.13;5053234;28;20190;-64
2022/01/25 04:29:40;;;;;;;52.67;34.77;;;8.20;64.40;;;11.39;48.90;103271.84;5053011;28;20188;-64
2022/01/25 04:32:10;;;;;;;55.90;35.23;;;8.20;64.40;;;11.39;48.90;103277.13;5054573;28;20558;-65
2022/01/25 04:34:42;;;;;;;51.97;34.67;;;8.20;64.30;;;11.37;49.09;103274.59;5056992;28;20202;-65
2022/01/25 04:53:43;;;;;;;54.80;36.33;;;8.20;65.10;;;11.43;49.11;103260.13;5052624;28;20577;-65
2022/01/25 04:56:20;;;;;;;54.07;36.20;;;8.20;65.10;;;11.44;48.96;103252.09;5053021;28;20553;-64
2022/01/25 04:58:58;;;;;;;60.17;38.43;;;8.20;65.00;;;11.45;48.97;103247.66;5052971;28;20213;-65
2022/01/25 05:01:26;;;;;;;50.60;34.80;;;8.20;64.90;;;11.45;48.99;103247.66;5052954;28;20280;-66
2022/01/25 05:04:05;;;;;;;49.00;32.50;;;8.20;65.00;;;11.45;49.20;103251.13;5051337;28;20671;-65
2022/01/25 05:06:33;;;;;;;57.97;37.10;;;8.20;65.10;;;11.47;49.19;103258.91;5052873;28;20669;-64
2022/01/25 05:09:09;;;;;;;48.63;33.17;;;8.20;65.10;;;11.49;49.09;103254.34;5051685;28;20384;-65
2022/01/25 05:11:43;;;;;;;51.30;34.60;;;8.20;65.20;;;11.52;49.18;103267.31;5052887;28;20194;-64
2022/01/25 05:14:25;;;;;;;54.67;35.30;;;8.20;65.10;;;11.54;48.72;103260.13;5051419;28;20229;-65
2022/01/25 05:16:59;;;;;;;53.30;33.70;;;8.20;65.20;;;11.54;48.77;103262.75;5035346;28;20229;-65
2022/01/25 05:22:28;;;;;;;49.40;33.60;;;8.30;65.40;;;11.53;48.55;103255.78;5053016;28;20280;-62
2022/01/25 05:24:56;;;;;;;50.97;34.37;;;8.30;65.20;;;11.50;49.18;103261.34;5052418;28;20316;-64
2022/01/25 05:27:30;;;;;;;51.87;34.93;;;8.30;65.20;;;11.50;49.02;103253.41;5052696;28;20193;-64
2022/01/25 05:29:58;;;;;;;49.20;32.43;;;8.30;65.30;;;11.50;48.89;103242.88;5051408;28;20522;-64
2022/01/25 05:32:27;;;;;;;49.10;33.53;;;8.30;65.30;;;11.52;49.30;103248.84;5052020;28;20678;-65
2022/01/25 05:34:55;;;;;;;53.70;34.07;;;8.20;65.30;;;11.54;49.26;103255.69;5051449;28;20214;-64
2022/01/25 05:37:22;;;;;;;52.17;34.33;;;8.30;65.60;;;11.56;48.88;103255.56;5052617;28;20186;-66
2022/01/25 05:39:51;;;;;;;50.90;34.67;;;8.30;65.60;;;11.58;48.81;103261.56;5052561;28;20214;-65
2022/01/25 05:42:47;;;;;;;49.80;33.10;;;8.30;65.60;;;11.58;49.23;103261.56;5052711;28;20190;-64
2022/01/25 05:47:44;;;;;;;52.23;34.77;;;8.30;65.50;;;11.58;49.43;103272.09;5056197;28;20190;-65
2022/01/25 05:50:13;;;;;;;51.17;33.10;;;8.30;65.50;;;11.57;49.13;103266.03;5056166;28;20201;-63
2022/01/25 05:52:41;;;;;;;50.57;32.83;;;8.30;65.50;;;11.57;49.01;103267.81;5037917;28;20592;-65
2022/01/25 05:55:10;;;;;;;50.73;34.60;;;8.30;65.80;;;11.57;49.33;103270.44;5056498;28;20200;-65
2022/01/25 05:57:37;;;;;;;55.30;33.30;;;8.30;65.80;;;11.55;49.14;103273.19;5054879;28;20269;-66
2022/01/25 06:00:08;;;;;;;51.73;33.67;;;8.30;65.80;;;11.56;49.40;103274.03;5055619;28;20213;-65
2022/01/25 06:02:37;;;;;;;51.70;34.53;;;8.30;65.90;;;11.59;49.19;103279.06;5054761;28;20202;-66
2022/01/25 06:05:06;;;;;;;53.60;33.33;;;8.30;66.00;;;11.62;49.37;103276.22;5054683;28;20309;-65
2022/01/25 06:07:34;;;;;;;51.47;33.70;;;8.30;66.20;;;11.66;49.20;103280.28;5055766;28;20273;-64
2022/01/25 06:10:02;;;;;;;53.20;33.77;;;8.40;65.90;;;11.68;49.20;103275.75;5055611;28;20189;-64
2022/01/25 06:12:30;;;;;;;51.10;34.20;;;8.40;65.90;;;11.68;49.04;103281.03;5054186;28;20556;-65
2022/01/25 06:14:57;;;;;;;50.80;32.10;;;8.40;65.90;;;11.69;49.32;103269.53;5055353;28;20298;-64
2022/01/25 06:17:25;;;;;;;46.43;32.63;;;8.40;65.90;;;11.68;49.35;103267.00;5056165;28;20281;-64
2022/01/25 06:19:53;;;;;;;55.93;35.67;;;8.40;65.90;;;11.69;49.22;103268.69;5056723;28;20608;-64
2022/01/25 06:22:22;;;;;;;46.87;31.23;;;8.40;66.10;;;11.68;48.96;103267.84;5056199;28;20259;-68
2022/01/25 06:24:49;;;;;;;46.60;31.63;;;8.30;66.10;;;11.69;49.17;103269.53;5056650;28;20591;-64
2022/01/25 06:27:17;;;;;;;50.03;32.77;;;8.40;66.20;;;11.67;49.53;103260.03;5054428;28;20616;-66
2022/01/25 06:29:45;;;;;;;45.63;29.80;;;8.40;66.20;;;11.66;49.68;103269.72;5037953;28;20197;-66
2022/01/25 06:32:12;;;;;;;48.63;32.93;;;8.40;66.20;;;11.66;49.25;103263.59;5053894;28;20206;-65
2022/01/25 06:34:39;;;;;;;48.30;31.30;;;8.40;66.10;;;11.66;49.74;103263.59;5055085;28;20631;-65
2022/01/25 06:37:08;;;;;;;48.77;31.60;;;8.40;66.20;;;11.63;49.58;103269.09;5055312;28;20197;-66
2022/01/25 06:39:36;;;;;;;53.83;33.97;;;8.40;66.10;;;11.63;49.78;103269.09;5054479;28;20214;-66
2022/01/25 06:42:04;;;;;;;46.93;30.53;;;8.40;66.20;;;11.63;49.60;103267.31;5055458;28;20205;-66
2022/01/25 06:44:34;;;;;;;47.20;32.87;;;8.40;66.30;;;11.63;49.61;103269.09;5053669;28;20725;-63
2022/01/25 06:47:03;;;;;;;45.10;30.13;;;8.40;66.30;;;11.65;49.76;103270.69;5054688;28;20538;-64
2022/01/25 06:49:30;;;;;;;44.97;30.10;;;8.40;66.50;;;11.68;50.04;103272.28;5053434;28;20193;-65
2022/01/25 06:52:10;;;;;;;48.27;33.17;;;8.40;66.50;;;11.71;49.71;103272.88;5053692;28;20245;-66
2022/01/25 06:54:38;;;;;;;46.37;30.90;;;8.40;66.60;;;11.74;49.91;103267.38;5051246;28;20244;-66
2022/01/25 06:57:06;;;;;;;50.97;33.87;;;8.50;66.60;;;11.77;49.82;103268.91;5053224;28;20202;-67
2022/01/25 06:59:34;;;;;;;46.67;30.87;;;8.50;66.60;;;11.76;49.77;103262.81;5054561;28;20216;-65
2022/01/25 07:02:01;;;;;;;47.80;31.80;;;8.50;66.40;;;11.73;49.39;103267.47;5053821;28;20725;-66
2022/01/25 07:04:30;;;;;;;39.90;27.47;;;8.50;66.30;;;11.70;49.89;103265.91;5054452;28;20213;-65
2022/01/25 07:06:57;;;;;;;44.87;30.93;;;8.50;66.40;;;11.69;49.79;103269.53;5054694;28;20273;-66
2022/01/25 07:09:28;;;;;;;46.67;29.80;;;8.50;66.40;;;11.65;49.53;103273.31;5053933;28;20190;-66
2022/01/25 07:11:55;;;;;;;45.77;29.87;;;8.50;66.50;;;11.61;49.97;103277.16;5054051;28;20197;-66
2022/01/25 07:14:23;;;;;;;45.87;30.20;;;8.40;66.20;;;11.56;49.59;103271.38;5053293;28;20233;-66
2022/01/25 07:16:51;;;;;;;45.67;29.13;;;8.40;66.20;;;11.53;50.11;103274.25;5054233;28;20232;-66
2022/01/25 07:19:19;;;;;;;49.20;31.87;;;8.40;66.40;;;11.51;50.25;103270.91;5052719;28;20260;-66
2022/01/25 07:21:46;;;;;;;45.50;30.70;;;8.40;67.30;;;11.48;50.17;103261.44;5054588;28;20557;-66
2022/01/25 07:24:14;;;;;;;50.83;30.77;;;8.40;66.70;;;11.49;50.27;103270.19;5053875;28;20210;-65
2022/01/25 07:26:43;;;;;;;48.37;32.10;;;8.30;66.70;;;11.46;50.39;103262.50;5053862;28;20182;-66
2022/01/25 07:29:10;;;;;;;43.70;28.60;;;8.30;66.70;;;11.46;50.17;103273.91;5052951;28;20238;-67
2022/01/25 07:31:37;;;;;;;43.33;29.03;;;8.30;67.00;;;11.44;50.53;103269.69;5052378;28;20194;-64
2022/01/25 07:34:08;;;;;;;48.37;30.57;;;8.30;67.00;;;11.42;50.56;103276.88;5053073;28;20221;-66
2022/01/25 07:36:38;;;;;;;47.80;31.10;;;8.30;67.10;;;11.42;50.83;103272.47;5053702;28;20253;-66
2022/01/25 07:39:08;;;;;;;48.40;30.57;;;8.30;67.10;;;11.43;50.36;103270.66;5054156;28;20652;-66
2022/01/25 07:41:38;;;;;;;45.50;30.60;;;8.30;67.20;;;11.43;50.76;103270.66;5052645;28;20236;-66
2022/01/25 07:44:10;;;;;;;47.37;29.60;;;8.30;67.40;;;11.41;50.93;103264.69;5053066;28;20237;-65
2022/01/25 07:46:38;;;;;;;48.37;30.63;;;8.30;67.50;;;11.44;50.83;103264.41;5053255;28;20218;-66
2022/01/25 07:49:09;;;;;;;44.17;29.93;;;8.30;67.70;;;11.46;50.61;103268.63;5053286;28;20243;-66
2022/01/25 07:51:37;;;;;;;46.03;28.40;;;8.30;67.80;;;11.50;50.33;103258.69;5051739;28;20236;-66
2022/01/25 07:54:05;;;;;;;48.40;29.90;;;8.30;68.10;;;11.54;50.55;103260.13;5052711;28;20295;-66
2022/01/25 07:56:32;;;;;;;48.43;31.30;;;8.30;67.90;;;11.59;51.03;103265.88;5053451;28;20280;-66
2022/01/25 07:58:59;;;;;;;48.23;30.53;;;8.30;68.20;;;11.65;50.55;103270.69;5053044;28;20190;-66
2022/01/25 08:01:28;;;;;;;51.97;32.63;;;8.30;68.20;;;11.70;50.45;103267.72;5052306;28;20236;-64
2022/01/25 08:03:56;;;;;;;49.00;29.73;;;8.40;68.00;;;11.73;50.37;103270.13;5051101;28;20253;-64
2022/01/25 08:06:23;;;;;;;46.47;27.97;;;8.40;68.20;;;11.76;50.08;103270.72;5052683;28;20292;-64
2022/01/25 08:09:06;;;;;;;44.17;28.20;;;8.40;68.00;;;11.76;50.23;103265.44;5065620;28;20213;-65
2022/01/25 08:11:43;;;;;;;44.17;28.53;;;8.50;67.90;;;11.76;50.77;103270.72;5053544;28;20217;-67
2022/01/25 08:14:16;;;;;;;46.43;29.27;;;8.50;67.70;;;11.77;50.63;103267.13;5051826;28;20248;-66
2022/01/25 08:16:59;;;;;;;40.93;27.30;;;8.50;67.80;;;11.78;50.50;103268.81;5053013;28;20204;-64
2022/01/25 08:19:28;;;;;;;44.77;28.83;;;8.50;67.70;;;11.81;50.10;103267.72;5049991;28;20202;-66
2022/01/25 08:21:59;;;;;;;40.37;28.17;;;8.50;67.50;;;11.82;50.88;103264.97;5052812;28;20236;-65
2022/01/25 08:24:29;;;;;;;45.23;29.47;;;8.60;67.60;;;11.84;50.63;103267.50;5051574;28;20569;-65
2022/01/25 08:27:00;;;;;;;43.20;27.83;;;8.60;67.50;;;11.82;50.20;103264.97;5053059;28;20240;-60
2022/01/25 08:29:41;;;;;;;43.87;29.73;;;8.60;67.50;;;11.80;50.25;103266.88;5038103;28;20205;-61
2022/01/25 08:32:14;;;;;;;44.00;29.07;;;8.60;67.40;;;11.78;50.35;103271.44;5068006;28;20209;-61
2022/01/25 08:34:45;;;;;;;40.83;27.27;;;8.60;67.50;;;11.77;50.36;103279.47;5052438;28;20209;-66
2022/01/25 08:37:15;;;;;;;43.43;28.43;;;8.60;67.60;;;11.76;50.46;103289.19;5051665;28;20185;-67
2022/01/25 08:39:44;;;;;;;42.13;26.63;;;8.60;67.70;;;11.77;50.63;103284.75;5038243;28;20221;-66
2022/01/25 08:42:12;;;;;;;37.93;26.53;;;8.60;67.70;;;11.79;50.44;103286.31;5048003;28;20232;-66
2022/01/25 08:44:44;;;;;;;42.97;28.27;;;8.60;67.80;;;11.81;50.94;103278.28;5036893;28;20226;-66
2022/01/25 08:47:17;;;;;;;44.07;28.17;;;8.60;67.90;;;11.82;50.81;103280.78;5035920;28;20277;-66
2022/01/25 08:49:45;;;;;;;46.97;29.00;;;8.60;68.00;;;11.85;50.61;103285.84;5045628;28;20274;-66
2022/01/25 08:52:19;;;;;;;38.80;25.37;;;8.60;68.00;;;11.87;50.64;103290.97;5051708;28;20581;-66
2022/01/25 08:54:47;;;;;;;40.07;26.90;;;8.60;68.00;;;11.88;50.81;103296.16;5045784;28;20701;-66
2022/01/25 08:57:16;;;;;;;39.40;26.37;;;8.60;68.10;;;11.88;50.45;103290.88;5052218;28;20206;-66
2022/01/25 08:59:53;;;;;;;41.93;28.07;;;8.60;68.00;;;11.89;50.40;103289.91;5052335;28;20205;-65
2022/01/25 09:02:22;;;;;;;38.63;25.67;;;8.60;68.00;;;11.90;50.99;103288.97;5044953;28;20279;-69
2022/01/25 09:04:50;;;;;;;37.83;25.63;;;8.60;68.00;;;11.89;50.49;103291.69;5040997;28;20214;-66
2022/01/25 09:07:17;;;;;;;40.80;27.03;;;8.60;68.00;;;11.90;50.87;103293.41;5032357;28;20190;-66
2022/01/25 09:09:44;;;;;;;41.73;27.30;;;8.70;68.00;;;11.91;50.89;103301.19;5035226;28;20376;-66
2022/01/25 09:12:12;;;;;;;41.13;27.33;;;8.70;68.30;;;11.94;51.19;103293.03;5033463;28;20565;-64
2022/01/25 09:14:39;;;;;;;44.07;27.33;;;8.70;68.30;;;11.99;50.99;103293.50;5048587;28;20257;-65
2022/01/25 09:17:09;;;;;;;38.47;26.30;;;8.80;68.30;;;12.03;50.89;103292.31;5048380;28;20274;-65
2022/01/25 09:19:40;;;;;;;43.23;28.33;;;8.80;68.00;;;12.08;51.21;103298.06;5050651;28;20206;-66
2022/01/25 09:22:09;;;;;;;46.33;27.77;;;8.80;68.40;;;12.14;50.72;103302.88;5035624;28;20214;-66
2022/01/25 09:24:38;;;;;;;41.83;27.43;;;8.90;68.00;;;12.17;50.74;103299.97;5038733;28;20263;-67
2022/01/25 09:27:08;;;;;;;40.50;27.50;;;8.90;67.80;;;12.21;50.51;103308.50;5052137;28;20205;-66
2022/01/25 09:29:37;;;;;;;41.13;27.93;;;8.90;67.70;;;12.20;50.64;103297.09;5049654;28;20198;-66
2022/01/25 09:32:05;;;;;;;36.60;24.83;;;8.90;67.90;;;12.24;50.33;103309.06;5054339;28;20194;-66
2022/01/25 09:34:33;;;;;;;40.50;25.57;;;9.00;68.10;;;12.25;50.45;103302.00;5053040;28;20252;-66
2022/01/25 09:37:02;;;;;;;41.50;26.47;;;9.00;67.80;;;12.26;50.40;103305.50;5068853;28;20282;-66
2022/01/25 09:39:31;;;;;;;44.27;27.77;;;9.00;67.60;;;12.23;50.28;103299.50;5044158;28;20211;-65
2022/01/25 09:42:00;;;;;;;45.27;28.67;;;8.90;67.40;;;12.23;50.51;103311.84;5053172;28;20228;-65
2022/01/25 09:44:27;;;;;;;44.83;30.03;;;9.00;68.00;;;12.26;50.64;103310.78;5053727;28;20244;-65
2022/01/25 09:46:56;;;;;;;44.07;29.03;;;9.00;68.20;;;12.31;50.79;103311.25;5049718;28;20249;-66
2022/01/25 09:49:24;;;;;;;40.40;26.20;;;9.00;68.00;;;12.35;50.99;103307.41;5040961;28;20248;-66
2022/01/25 09:51:55;;;;;;;41.73;26.70;;;9.10;67.80;;;12.37;50.48;103306.31;5039240;28;20632;-65
2022/01/25 09:54:24;;;;;;;41.20;26.33;;;9.10;67.50;;;12.37;50.21;103308.09;5045575;28;20216;-65
2022/01/25 09:56:51;;;;;;;38.40;24.27;;;9.10;67.30;;;12.35;49.93;103304.75;5044360;28;20188;-63
2022/01/25 09:59:19;;;;;;;38.13;24.67;;;9.10;67.20;;;12.31;49.96;103303.34;5043233;28;20574;-65
2022/01/25 10:01:47;;;;;;;43.07;27.77;;;9.10;67.20;;;12.28;49.97;103303.56;5050088;28;20218;-66
2022/01/25 10:04:32;;;;;;;38.30;24.37;;;9.00;67.20;;;12.22;50.21;103311.00;5048374;28;20217;-67
2022/01/25 10:07:04;;;;;;;37.47;24.77;;;9.00;67.50;;;12.21;50.29;103304.06;5055268;28;20651;-67
2022/01/25 10:09:38;;;;;;;38.03;25.20;;;9.00;67.60;;;12.16;50.39;103303.59;5044185;28;20277;-66
2022/01/25 10:12:20;;;;;;;40.10;26.20;;;9.00;67.50;;;12.08;50.31;103303.34;5052368;28;20553;-67
2022/01/25 10:15:08;;;;;;;36.20;24.67;;;8.90;67.60;;;12.01;50.64;103307.44;5051225;28;20249;-65
2022/01/25 10:17:56;;;;;;;39.63;25.20;;;8.90;67.80;;;12.01;50.64;103302.16;5066978;28;20198;-65
2022/01/25 10:20:29;;;;;;;37.70;24.57;;;8.80;68.00;;;11.99;50.84;103298.78;5040389;28;20230;-62
2022/01/25 10:23:00;;;;;;;40.37;24.73;;;8.80;68.10;;;12.01;51.02;103296.88;5045681;28;20186;-66
2022/01/25 10:25:35;;;;;;;38.20;23.77;;;8.80;68.40;;;12.02;50.63;103303.84;5036118;28;20226;-66
2022/01/25 10:28:10;;;;;;;40.53;25.27;;;8.80;68.50;;;12.04;50.93;103309.84;5035732;28;20218;-66
2022/01/25 10:30:46;;;;;;;33.73;23.80;;;8.80;68.50;;;12.04;50.88;103304.56;5036962;28;20194;-66
2022/01/25 10:33:27;;;;;;;33.30;23.27;;;8.80;68.70;;;12.02;50.80;103303.84;5053859;28;20593;-66
2022/01/25 10:35:56;;;;;;;39.83;23.87;;;8.80;68.60;;;12.01;50.88;103310.06;5055166;28;20276;-67
2022/01/25 10:38:30;;;;;;;37.73;24.13;;;8.80;68.50;;;11.98;51.09;103312.94;5035132;28;20634;-66
2022/01/25 10:41:04;;;;;;;43.80;25.87;;;8.80;68.60;;;11.97;51.28;103316.56;5035576;28;20257;-62
2022/01/25 10:43:33;;;;;;;37.73;23.00;;;8.80;68.70;;;11.98;51.30;103312.94;5043468;28;20283;-66
2022/01/25 10:46:23;;;;;;;41.03;26.20;;;8.80;68.60;;;11.93;51.39;103320.38;5070526;28;20207;-65
2022/01/25 10:48:57;;;;;;;38.43;24.40;;;8.80;68.60;;;11.93;51.48;103325.66;5035727;28;20202;-65
2022/01/25 10:51:28;;;;;;;34.87;23.40;;;8.80;68.60;;;11.93;51.25;103327.47;5036430;28;20269;-67
2022/01/25 10:54:07;;;;;;;38.93;25.50;;;8.80;68.70;;;11.94;51.23;103319.41;5045717;28;20257;-66
2022/01/25 10:56:56;;;;;;;41.83;24.87;;;8.80;69.30;;;11.98;51.55;103323.50;5039782;28;20202;-65
2022/01/25 10:59:28;;;;;;;40.37;25.37;;;8.80;69.30;;;12.01;51.48;103320.63;5037412;28;20209;-66
2022/01/25 11:01:58;;;;;;;40.10;24.13;;;8.80;69.50;;;12.03;51.38;103320.50;5035839;28;20215;-67
2022/01/25 11:04:31;;;;;;;38.37;24.83;;;8.80;69.60;;;12.07;51.30;103322.78;5056085;28;20217;-66
2022/01/25 11:07:02;;;;;;;33.67;22.40;;;8.80;70.60;;;12.12;51.44;103317.97;5032085;28;20219;-66
2022/01/25 11:09:38;;;;;;;34.47;22.70;;;8.80;69.90;;;12.13;51.32;103314.38;5035114;28;20245;-66
2022/01/25 11:12:12;;;;;;;37.13;23.87;;;8.80;69.60;;;12.15;51.27;103311.59;5042736;28;20232;-66
2022/01/25 11:14:57;;;;;;;36.73;24.90;;;8.90;69.70;;;12.16;51.37;103311.50;5054040;28;20221;-67
2022/01/25 11:17:27;;;;;;;33.87;22.77;;;8.90;69.60;;;12.15;51.39;103308.97;5048363;28;20273;-65
2022/01/25 11:19:57;;;;;;;39.50;24.83;;;8.90;69.60;;;12.14;51.61;103305.50;5033762;28;20194;-64
2022/01/25 11:22:27;;;;;;;35.50;24.10;;;8.90;69.60;;;12.11;51.35;103303.09;5034276;28;20699;-65
2022/01/25 11:24:59;;;;;;;34.83;24.03;;;8.90;69.60;;;12.10;51.36;103296.13;5039021;28;20280;-64
2022/01/25 11:27:30;;;;;;;34.70;23.23;;;8.90;69.80;;;12.08;51.66;103292.78;5036221;28;20258;-66
2022/01/25 11:30:04;;;;;;;37.07;23.07;;;8.90;69.80;;;12.08;51.64;103299.84;5033295;28;20278;-67
2022/01/25 11:32:39;;;;;;;37.70;24.77;;;8.90;69.80;;;12.09;52.01;103302.41;5031840;28;20198;-68
2022/01/25 11:35:11;;;;;;;39.47;24.97;;;8.90;69.90;;;12.10;51.79;103296.13;5031890;28;20276;-68
2022/01/25 11:37:42;;;;;;;33.03;22.40;;;8.90;69.90;;;12.12;52.14;103302.13;5032153;28;20233;-68
2022/01/25 11:40:26;;;;;;;33.87;22.00;;;8.90;70.70;;;12.06;52.03;103300.00;5032312;28;20211;-67
2022/01/25 11:42:58;;;;;;;37.50;23.73;;;8.90;69.80;;;12.04;51.95;103301.91;5033509;28;20222;-66
2022/01/25 11:45:29;;;;;;;35.87;23.90;;;8.90;69.70;;;12.06;52.21;103296.50;5033608;28;20186;-65
2022/01/25 11:47:57;;;;;;;35.23;22.93;;;8.90;70.00;;;12.10;52.25;103296.13;5034250;28;20197;-68
2022/01/25 11:50:27;;;;;;;37.10;23.90;;;8.90;70.30;;;12.18;51.92;103293.75;5033950;28;20195;-65
2022/01/25 11:53:05;;;;;;;34.63;23.77;;;8.90;70.50;;;12.26;52.04;103289.66;5034099;28;20551;-65
2022/01/25 11:55:39;;;;;;;36.23;23.87;;;8.90;70.50;;;12.32;51.90;103289.16;5033834;28;20249;-66
2022/01/25 11:58:11;;;;;;;35.30;23.27;;;9.00;70.60;;;12.37;52.12;103281.69;5033836;28;20196;-64
2022/01/25 12:00:46;;;;;;;31.60;22.67;;;9.00;70.40;;;12.43;51.66;103270.66;5033659;28;20278;-67
2022/01/25 12:03:25;;;;;;;33.87;22.23;;;9.10;70.50;;;12.47;51.75;103282.63;5033329;28;20216;-66